sensor_id;sensor_type;location;lat;lon;timestamp;pressure;altitude;pressure_sealevel;temperature;humidity
75425;BME280;64007;50.632;13.700;2023-06-10T00:02:08;97764.53;;;15.44;100.00
75425;BME280;64007;50.632;13.700;2023-06-10T00:04:34;97765.03;;;15.39;100.00
75425;BME280;64007;50.632;13.700;2023-06-10T00:07:03;97767.50;;;15.32;100.00
75425;BME280;64007;50.632;13.700;2023-06-10T00:09:29;97766.16;;;15.28;100.00
75425;BME280;64007;50.632;13.700;2023-06-10T00:11:55;97758.75;;;15.22;100.00
75425;BME280;64007;50.632;13.700;2023-06-10T00:14:21;97765.41;;;15.18;100.00
75425;BME280;64007;50.632;13.700;2023-06-10T00:16:46;97770.91;;;15.17;100.00
75425;BME280;64007;50.632;13.700;2023-06-10T00:19:12;97772.25;;;15.13;100.00
75425;BME280;64007;50.632;13.700;2023-06-10T00:21:40;97769.53;;;15.04;100.00
75425;BME280;64007;50.632;13.700;2023-06-10T00:24:07;97774.19;;;15.28;100.00
75425;BME280;64007;50.632;13.700;2023-06-10T00:26:40;97776.22;;;15.09;100.00
75425;BME280;64007;50.632;13.700;2023-06-10T00:29:07;97784.44;;;15.07;100.00
75425;BME280;64007;50.632;13.700;2023-06-10T00:31:37;97783.53;;;14.98;100.00
75425;BME280;64007;50.632;13.700;2023-06-10T00:34:03;97787.84;;;14.91;100.00
75425;BME280;64007;50.632;13.700;2023-06-10T00:36:29;97797.34;;;14.86;100.00
75425;BME280;64007;50.632;13.700;2023-06-10T00:38:56;97802.84;;;14.84;100.00
75425;BME280;64007;50.632;13.700;2023-06-10T00:41:22;97801.94;;;14.76;100.00
75425;BME280;64007;50.632;13.700;2023-06-10T00:43:48;97799.34;;;14.84;100.00
75425;BME280;64007;50.632;13.700;2023-06-10T00:46:14;97804.75;;;14.74;100.00
75425;BME280;64007;50.632;13.700;2023-06-10T00:48:42;97798.09;;;14.78;100.00
75425;BME280;64007;50.632;13.700;2023-06-10T00:51:08;97814.09;;;14.70;100.00
75425;BME280;64007;50.632;13.700;2023-06-10T00:53:36;97805.84;;;14.63;100.00
75425;BME280;64007;50.632;13.700;2023-06-10T00:56:03;97814.72;;;14.64;100.00
75425;BME280;64007;50.632;13.700;2023-06-10T00:58:29;97811.13;;;14.55;100.00
75425;BME280;64007;50.632;13.700;2023-06-10T01:00:55;97811.59;;;14.51;100.00
75425;BME280;64007;50.632;13.700;2023-06-10T01:03:21;97807.25;;;14.50;100.00
75425;BME280;64007;50.632;13.700;2023-06-10T01:05:55;97806.56;;;14.48;100.00
75425;BME280;64007;50.632;13.700;2023-06-10T01:11:07;97815.97;;;14.52;100.00
75425;BME280;64007;50.632;13.700;2023-06-10T01:13:36;97811.53;;;14.43;100.00
75425;BME280;64007;50.632;13.700;2023-06-10T01:16:05;97816.28;;;14.39;100.00
75425;BME280;64007;50.632;13.700;2023-06-10T01:18:31;97809.81;;;14.41;100.00
75425;BME280;64007;50.632;13.700;2023-06-10T01:20:57;97814.47;;;14.39;100.00
75425;BME280;64007;50.632;13.700;2023-06-10T01:23:23;97816.28;;;14.39;100.00
75425;BME280;64007;50.632;13.700;2023-06-10T01:25:53;97817.44;;;14.36;100.00
75425;BME280;64007;50.632;13.700;2023-06-10T01:28:41;97814.38;;;14.31;100.00
75425;BME280;64007;50.632;13.700;2023-06-10T01:31:30;97813.78;;;14.37;100.00
75425;BME280;64007;50.632;13.700;2023-06-10T01:34:00;97811.22;;;14.46;100.00
75425;BME280;64007;50.632;13.700;2023-06-10T01:36:28;97812.50;;;14.41;100.00
75425;BME280;64007;50.632;13.700;2023-06-10T01:38:55;97808.25;;;14.39;100.00
75425;BME280;64007;50.632;13.700;2023-06-10T01:41:22;97817.13;;;14.39;100.00
75425;BME280;64007;50.632;13.700;2023-06-10T01:43:48;97811.09;;;14.37;100.00
75425;BME280;64007;50.632;13.700;2023-06-10T01:46:15;97808.97;;;14.41;100.00
75425;BME280;64007;50.632;13.700;2023-06-10T01:48:41;97808.41;;;14.37;100.00
75425;BME280;64007;50.632;13.700;2023-06-10T01:51:07;97816.28;;;14.49;100.00
75425;BME280;64007;50.632;13.700;2023-06-10T01:53:33;97817.94;;;14.50;100.00
75425;BME280;64007;50.632;13.700;2023-06-10T01:55:59;97822.47;;;14.49;100.00
75425;BME280;64007;50.632;13.700;2023-06-10T01:58:25;97825.28;;;14.48;100.00
75425;BME280;64007;50.632;13.700;2023-06-10T02:00:51;97820.25;;;14.45;100.00
75425;BME280;64007;50.632;13.700;2023-06-10T02:03:17;97827.28;;;14.46;100.00
75425;BME280;64007;50.632;13.700;2023-06-10T02:05:43;97832.63;;;14.46;100.00
75425;BME280;64007;50.632;13.700;2023-06-10T02:08:09;97828.44;;;14.43;100.00
75425;BME280;64007;50.632;13.700;2023-06-10T02:10:35;97822.25;;;14.43;100.00
75425;BME280;64007;50.632;13.700;2023-06-10T02:13:01;97828.66;;;14.50;100.00
75425;BME280;64007;50.632;13.700;2023-06-10T02:15:26;97831.25;;;14.59;100.00
75425;BME280;64007;50.632;13.700;2023-06-10T02:17:52;97827.09;;;14.65;100.00
75425;BME280;64007;50.632;13.700;2023-06-10T02:20:20;97828.16;;;14.72;100.00
75425;BME280;64007;50.632;13.700;2023-06-10T02:22:46;97829.22;;;14.79;100.00
75425;BME280;64007;50.632;13.700;2023-06-10T02:25:12;97819.97;;;14.91;100.00
75425;BME280;64007;50.632;13.700;2023-06-10T02:27:38;97821.44;;;15.12;100.00
75425;BME280;64007;50.632;13.700;2023-06-10T02:30:04;97819.41;;;15.31;100.00
75425;BME280;64007;50.632;13.700;2023-06-10T02:32:30;97822.00;;;15.49;100.00
75425;BME280;64007;50.632;13.700;2023-06-10T02:34:56;97814.72;;;15.59;99.64
75425;BME280;64007;50.632;13.700;2023-06-10T02:37:21;97821.81;;;15.69;100.00
75425;BME280;64007;50.632;13.700;2023-06-10T02:39:47;97819.50;;;15.74;98.62
75425;BME280;64007;50.632;13.700;2023-06-10T02:42:13;97817.19;;;15.87;93.17
75425;BME280;64007;50.632;13.700;2023-06-10T02:44:38;97822.25;;;15.98;93.02
75425;BME280;64007;50.632;13.700;2023-06-10T02:47:05;97818.41;;;16.01;91.74
75425;BME280;64007;50.632;13.700;2023-06-10T02:49:31;97826.00;;;16.13;93.29
75425;BME280;64007;50.632;13.700;2023-06-10T02:51:56;97829.88;;;16.19;94.19
75425;BME280;64007;50.632;13.700;2023-06-10T02:54:23;97822.00;;;16.17;97.04
75425;BME280;64007;50.632;13.700;2023-06-10T02:56:49;97816.94;;;16.06;99.12
75425;BME280;64007;50.632;13.700;2023-06-10T02:59:14;97821.06;;;16.01;100.00
75425;BME280;64007;50.632;13.700;2023-06-10T03:01:41;97836.16;;;15.93;100.00
75425;BME280;64007;50.632;13.700;2023-06-10T03:04:07;97828.91;;;15.86;100.00
75425;BME280;64007;50.632;13.700;2023-06-10T03:06:33;97837.59;;;15.80;100.00
75425;BME280;64007;50.632;13.700;2023-06-10T03:09:04;97843.28;;;15.77;100.00
75425;BME280;64007;50.632;13.700;2023-06-10T03:11:30;97843.63;;;15.74;100.00
75425;BME280;64007;50.632;13.700;2023-06-10T03:13:56;97847.13;;;15.74;100.00
75425;BME280;64007;50.632;13.700;2023-06-10T03:16:22;97849.66;;;15.76;100.00
75425;BME280;64007;50.632;13.700;2023-06-10T03:18:50;97845.63;;;15.72;100.00
75425;BME280;64007;50.632;13.700;2023-06-10T03:21:16;97856.81;;;15.67;100.00
75425;BME280;64007;50.632;13.700;2023-06-10T03:23:42;97856.88;;;15.57;100.00
75425;BME280;64007;50.632;13.700;2023-06-10T03:26:08;97845.13;;;15.50;100.00
75425;BME280;64007;50.632;13.700;2023-06-10T03:28:35;97863.19;;;15.48;100.00
75425;BME280;64007;50.632;13.700;2023-06-10T03:31:01;97861.84;;;15.44;100.00
75425;BME280;64007;50.632;13.700;2023-06-10T03:33:27;97871.25;;;15.48;100.00
75425;BME280;64007;50.632;13.700;2023-06-10T03:35:53;97874.88;;;15.39;100.00
75425;BME280;64007;50.632;13.700;2023-06-10T03:38:19;97872.31;;;15.29;100.00
75425;BME280;64007;50.632;13.700;2023-06-10T03:40:45;97873.81;;;15.32;100.00
75425;BME280;64007;50.632;13.700;2023-06-10T03:43:10;97875.47;;;15.25;100.00
75425;BME280;64007;50.632;13.700;2023-06-10T03:45:36;97877.38;;;15.15;100.00
75425;BME280;64007;50.632;13.700;2023-06-10T03:48:02;97873.47;;;15.09;100.00
75425;BME280;64007;50.632;13.700;2023-06-10T03:50:29;97875.31;;;15.09;100.00
75425;BME280;64007;50.632;13.700;2023-06-10T03:52:54;97877.31;;;15.07;100.00
75425;BME280;64007;50.632;13.700;2023-06-10T03:55:20;97869.59;;;15.03;100.00
75425;BME280;64007;50.632;13.700;2023-06-10T03:57:47;97876.31;;;15.08;100.00
75425;BME280;64007;50.632;13.700;2023-06-10T04:00:15;97880.00;;;15.07;100.00
75425;BME280;64007;50.632;13.700;2023-06-10T04:02:43;97880.31;;;15.03;100.00
75425;BME280;64007;50.632;13.700;2023-06-10T04:05:15;97877.94;;;15.00;100.00
75425;BME280;64007;50.632;13.700;2023-06-10T04:07:42;97886.66;;;15.02;100.00
75425;BME280;64007;50.632;13.700;2023-06-10T04:10:08;97882.28;;;15.01;100.00
75425;BME280;64007;50.632;13.700;2023-06-10T04:12:35;97893.38;;;15.07;100.00
75425;BME280;64007;50.632;13.700;2023-06-10T04:15:02;97886.72;;;15.11;100.00
75425;BME280;64007;50.632;13.700;2023-06-10T04:17:28;97899.03;;;15.21;100.00
75425;BME280;64007;50.632;13.700;2023-06-10T04:19:54;97891.84;;;15.22;100.00
75425;BME280;64007;50.632;13.700;2023-06-10T04:22:20;97901.31;;;15.34;100.00
75425;BME280;64007;50.632;13.700;2023-06-10T04:24:46;97898.81;;;15.41;100.00
75425;BME280;64007;50.632;13.700;2023-06-10T04:27:12;97898.03;;;15.48;100.00
75425;BME280;64007;50.632;13.700;2023-06-10T04:29:38;97900.41;;;15.51;100.00
75425;BME280;64007;50.632;13.700;2023-06-10T04:32:04;97903.75;;;15.53;100.00
75425;BME280;64007;50.632;13.700;2023-06-10T04:34:33;97900.34;;;15.61;100.00
75425;BME280;64007;50.632;13.700;2023-06-10T04:36:58;97899.41;;;15.70;100.00
75425;BME280;64007;50.632;13.700;2023-06-10T04:39:24;97902.47;;;15.83;100.00
75425;BME280;64007;50.632;13.700;2023-06-10T04:41:50;97897.97;;;15.92;100.00
75425;BME280;64007;50.632;13.700;2023-06-10T04:44:16;97893.34;;;16.02;100.00
75425;BME280;64007;50.632;13.700;2023-06-10T04:46:42;97895.75;;;16.13;100.00
75425;BME280;64007;50.632;13.700;2023-06-10T04:49:07;97902.47;;;16.25;100.00
75425;BME280;64007;50.632;13.700;2023-06-10T04:51:33;97888.09;;;16.35;100.00
75425;BME280;64007;50.632;13.700;2023-06-10T04:54:00;97897.31;;;16.40;100.00
75425;BME280;64007;50.632;13.700;2023-06-10T04:56:29;97904.25;;;16.51;100.00
75425;BME280;64007;50.632;13.700;2023-06-10T04:58:59;97908.78;;;16.58;100.00
75425;BME280;64007;50.632;13.700;2023-06-10T05:01:25;97910.81;;;16.65;100.00
75425;BME280;64007;50.632;13.700;2023-06-10T05:03:51;97909.34;;;16.70;100.00
75425;BME280;64007;50.632;13.700;2023-06-10T05:06:16;97916.56;;;16.78;100.00
75425;BME280;64007;50.632;13.700;2023-06-10T05:08:42;97920.13;;;16.86;100.00
75425;BME280;64007;50.632;13.700;2023-06-10T05:11:08;97921.16;;;16.94;100.00
75425;BME280;64007;50.632;13.700;2023-06-10T05:13:34;97922.50;;;16.98;100.00
75425;BME280;64007;50.632;13.700;2023-06-10T05:16:00;97910.75;;;17.07;100.00
75425;BME280;64007;50.632;13.700;2023-06-10T05:18:26;97918.78;;;17.15;100.00
75425;BME280;64007;50.632;13.700;2023-06-10T05:20:51;97922.84;;;17.27;100.00
75425;BME280;64007;50.632;13.700;2023-06-10T05:23:20;97920.16;;;17.35;100.00
75425;BME280;64007;50.632;13.700;2023-06-10T05:25:45;97919.97;;;17.45;100.00
75425;BME280;64007;50.632;13.700;2023-06-10T05:28:11;97916.75;;;17.66;100.00
75425;BME280;64007;50.632;13.700;2023-06-10T05:30:37;97927.22;;;17.69;100.00
75425;BME280;64007;50.632;13.700;2023-06-10T05:33:04;97923.66;;;17.76;100.00
75425;BME280;64007;50.632;13.700;2023-06-10T05:35:30;97923.78;;;17.91;100.00
75425;BME280;64007;50.632;13.700;2023-06-10T05:37:56;97917.69;;;18.05;100.00
75425;BME280;64007;50.632;13.700;2023-06-10T05:40:22;97917.34;;;18.08;100.00
75425;BME280;64007;50.632;13.700;2023-06-10T05:42:49;97918.19;;;18.09;100.00
75425;BME280;64007;50.632;13.700;2023-06-10T05:45:14;97920.34;;;18.13;100.00
75425;BME280;64007;50.632;13.700;2023-06-10T05:47:40;97919.31;;;18.23;100.00
75425;BME280;64007;50.632;13.700;2023-06-10T05:50:06;97918.56;;;18.37;100.00
75425;BME280;64007;50.632;13.700;2023-06-10T05:52:35;97918.69;;;18.52;100.00
75425;BME280;64007;50.632;13.700;2023-06-10T05:55:02;97911.56;;;18.59;100.00
75425;BME280;64007;50.632;13.700;2023-06-10T05:57:28;97914.06;;;18.68;100.00
75425;BME280;64007;50.632;13.700;2023-06-10T05:59:53;97911.06;;;18.63;100.00
75425;BME280;64007;50.632;13.700;2023-06-10T06:02:19;97908.66;;;18.68;100.00
75425;BME280;64007;50.632;13.700;2023-06-10T06:04:45;97916.34;;;18.79;100.00
75425;BME280;64007;50.632;13.700;2023-06-10T06:07:11;97920.03;;;18.78;100.00
75425;BME280;64007;50.632;13.700;2023-06-10T06:09:36;97922.94;;;19.00;100.00
75425;BME280;64007;50.632;13.700;2023-06-10T06:12:02;97922.22;;;19.06;100.00
75425;BME280;64007;50.632;13.700;2023-06-10T06:14:30;97927.97;;;19.03;100.00
75425;BME280;64007;50.632;13.700;2023-06-10T06:16:57;97929.28;;;19.07;100.00
75425;BME280;64007;50.632;13.700;2023-06-10T06:19:23;97928.22;;;19.16;100.00
75425;BME280;64007;50.632;13.700;2023-06-10T06:21:49;97922.13;;;19.22;100.00
75425;BME280;64007;50.632;13.700;2023-06-10T06:24:15;97930.63;;;19.34;100.00
75425;BME280;64007;50.632;13.700;2023-06-10T06:26:41;97926.63;;;19.45;100.00
75425;BME280;64007;50.632;13.700;2023-06-10T06:29:07;97932.97;;;19.52;100.00
75425;BME280;64007;50.632;13.700;2023-06-10T06:31:33;97940.69;;;19.63;100.00
75425;BME280;64007;50.632;13.700;2023-06-10T06:33:59;97938.75;;;19.71;98.62
75425;BME280;64007;50.632;13.700;2023-06-10T06:36:25;97940.78;;;19.84;100.00
75425;BME280;64007;50.632;13.700;2023-06-10T06:38:50;97948.25;;;19.97;98.34
75425;BME280;64007;50.632;13.700;2023-06-10T06:41:16;97953.75;;;20.03;95.78
75425;BME280;64007;50.632;13.700;2023-06-10T06:43:42;97948.34;;;20.18;98.22
75425;BME280;64007;50.632;13.700;2023-06-10T06:46:08;97952.00;;;20.40;97.82
75425;BME280;64007;50.632;13.700;2023-06-10T06:48:35;97969.50;;;20.59;92.89
75425;BME280;64007;50.632;13.700;2023-06-10T06:51:00;97968.81;;;20.72;93.26
75425;BME280;64007;50.632;13.700;2023-06-10T06:53:26;97962.84;;;20.76;90.22
75425;BME280;64007;50.632;13.700;2023-06-10T06:55:52;97974.22;;;20.86;87.64
75425;BME280;64007;50.632;13.700;2023-06-10T06:58:18;97980.06;;;20.90;85.93
75425;BME280;64007;50.632;13.700;2023-06-10T07:00:43;97985.75;;;20.95;88.96
75425;BME280;64007;50.632;13.700;2023-06-10T07:03:09;97978.41;;;21.10;89.43
75425;BME280;64007;50.632;13.700;2023-06-10T07:05:35;97984.88;;;21.24;85.00
75425;BME280;64007;50.632;13.700;2023-06-10T07:08:01;97988.28;;;21.33;86.24
75425;BME280;64007;50.632;13.700;2023-06-10T07:10:27;97988.28;;;21.33;84.53
75425;BME280;64007;50.632;13.700;2023-06-10T07:12:54;97980.81;;;21.35;85.04
75425;BME280;64007;50.632;13.700;2023-06-10T07:15:20;97982.88;;;21.33;82.83
75425;BME280;64007;50.632;13.700;2023-06-10T07:17:45;97987.38;;;21.25;82.79
75425;BME280;64007;50.632;13.700;2023-06-10T07:20:11;97983.44;;;21.13;81.95
75425;BME280;64007;50.632;13.700;2023-06-10T07:22:37;97996.19;;;20.98;82.95
75425;BME280;64007;50.632;13.700;2023-06-10T07:25:06;97998.63;;;20.93;84.60
75425;BME280;64007;50.632;13.700;2023-06-10T07:27:32;97991.53;;;20.92;85.52
75425;BME280;64007;50.632;13.700;2023-06-10T07:29:58;98002.72;;;20.89;85.25
75425;BME280;64007;50.632;13.700;2023-06-10T07:32:23;98004.41;;;20.90;86.02
75425;BME280;64007;50.632;13.700;2023-06-10T07:34:50;98005.44;;;20.89;85.41
75425;BME280;64007;50.632;13.700;2023-06-10T07:37:16;98008.50;;;20.86;84.38
75425;BME280;64007;50.632;13.700;2023-06-10T07:39:42;98007.31;;;20.88;85.74
75425;BME280;64007;50.632;13.700;2023-06-10T07:42:08;98004.03;;;20.93;86.89
75425;BME280;64007;50.632;13.700;2023-06-10T07:44:34;98011.38;;;20.99;87.31
75425;BME280;64007;50.632;13.700;2023-06-10T07:47:00;98007.13;;;21.11;86.84
75425;BME280;64007;50.632;13.700;2023-06-10T07:49:25;98002.81;;;21.32;88.09
75425;BME280;64007;50.632;13.700;2023-06-10T07:51:54;98011.72;;;21.47;86.12
75425;BME280;64007;50.632;13.700;2023-06-10T07:54:20;98015.06;;;21.49;81.79
75425;BME280;64007;50.632;13.700;2023-06-10T07:56:45;98019.69;;;21.55;82.45
75425;BME280;64007;50.632;13.700;2023-06-10T07:59:13;98013.44;;;21.54;81.64
75425;BME280;64007;50.632;13.700;2023-06-10T08:01:39;98015.56;;;21.59;82.76
75425;BME280;64007;50.632;13.700;2023-06-10T08:04:05;98016.88;;;21.63;84.32
75425;BME280;64007;50.632;13.700;2023-06-10T08:06:31;98014.81;;;21.65;82.47
75425;BME280;64007;50.632;13.700;2023-06-10T08:08:57;98021.75;;;21.74;82.59
75425;BME280;64007;50.632;13.700;2023-06-10T08:11:23;98018.72;;;21.84;83.26
75425;BME280;64007;50.632;13.700;2023-06-10T08:13:48;98026.03;;;22.05;83.08
75425;BME280;64007;50.632;13.700;2023-06-10T08:16:14;98024.44;;;22.17;81.58
75425;BME280;64007;50.632;13.700;2023-06-10T08:18:40;98023.63;;;22.23;79.68
75425;BME280;64007;50.632;13.700;2023-06-10T08:21:06;98030.81;;;22.37;78.69
75425;BME280;64007;50.632;13.700;2023-06-10T08:23:31;98032.78;;;22.50;79.38
75425;BME280;64007;50.632;13.700;2023-06-10T08:25:57;98038.88;;;22.59;76.51
75425;BME280;64007;50.632;13.700;2023-06-10T08:28:23;98028.47;;;22.62;73.71
75425;BME280;64007;50.632;13.700;2023-06-10T08:30:49;98030.53;;;22.54;73.88
75425;BME280;64007;50.632;13.700;2023-06-10T08:33:14;98038.41;;;22.48;74.73
75425;BME280;64007;50.632;13.700;2023-06-10T08:35:40;98030.81;;;22.37;72.86
75425;BME280;64007;50.632;13.700;2023-06-10T08:38:06;98037.81;;;22.25;73.67
75425;BME280;64007;50.632;13.700;2023-06-10T08:40:33;98033.69;;;22.29;73.36
75425;BME280;64007;50.632;13.700;2023-06-10T08:43:14;98042.41;;;22.52;73.06
75425;BME280;64007;50.632;13.700;2023-06-10T08:45:42;98037.09;;;22.79;74.08
75425;BME280;64007;50.632;13.700;2023-06-10T08:48:12;98031.63;;;23.00;71.25
75425;BME280;64007;50.632;13.700;2023-06-10T08:50:39;98037.09;;;23.13;71.19
75425;BME280;64007;50.632;13.700;2023-06-10T08:53:06;98026.84;;;23.09;70.31
75425;BME280;64007;50.632;13.700;2023-06-10T08:55:36;98030.31;;;22.90;69.82
75425;BME280;64007;50.632;13.700;2023-06-10T08:58:03;98033.88;;;22.56;68.07
75425;BME280;64007;50.632;13.700;2023-06-10T09:00:30;98033.91;;;22.34;68.38
75425;BME280;64007;50.632;13.700;2023-06-10T09:02:57;98047.78;;;22.18;68.10
75425;BME280;64007;50.632;13.700;2023-06-10T09:05:24;98038.13;;;22.09;67.82
75425;BME280;64007;50.632;13.700;2023-06-10T09:07:52;98041.72;;;21.95;66.48
75425;BME280;64007;50.632;13.700;2023-06-10T09:10:18;98039.41;;;21.92;66.13
75425;BME280;64007;50.632;13.700;2023-06-10T09:12:44;98037.88;;;21.82;66.12
75425;BME280;64007;50.632;13.700;2023-06-10T09:15:10;98037.88;;;21.82;66.89
75425;BME280;64007;50.632;13.700;2023-06-10T09:17:38;98043.81;;;21.99;67.44
75425;BME280;64007;50.632;13.700;2023-06-10T09:20:09;98038.22;;;22.22;66.83
75425;BME280;64007;50.632;13.700;2023-06-10T09:22:35;98049.22;;;22.42;65.29
75425;BME280;64007;50.632;13.700;2023-06-10T09:25:08;98053.72;;;22.63;64.82
75425;BME280;64007;50.632;13.700;2023-06-10T09:27:51;98049.81;;;22.78;63.64
75425;BME280;64007;50.632;13.700;2023-06-10T09:32:55;98054.22;;;23.21;63.17
75425;BME280;64007;50.632;13.700;2023-06-10T09:35:26;98061.38;;;23.28;61.38
75425;BME280;64007;50.632;13.700;2023-06-10T09:37:52;98065.31;;;23.26;64.29
75425;BME280;64007;50.632;13.700;2023-06-10T09:40:19;98070.47;;;23.14;64.10
75425;BME280;64007;50.632;13.700;2023-06-10T09:42:45;98073.69;;;22.83;67.65
75425;BME280;64007;50.632;13.700;2023-06-10T09:45:11;98058.94;;;22.36;71.63
75425;BME280;64007;50.632;13.700;2023-06-10T09:47:36;98064.47;;;22.22;74.85
75425;BME280;64007;50.632;13.700;2023-06-10T09:50:02;98071.03;;;22.06;75.59
75425;BME280;64007;50.632;13.700;2023-06-10T09:52:29;98082.00;;;21.83;77.06
75425;BME280;64007;50.632;13.700;2023-06-10T09:55:02;98081.28;;;21.53;78.44
75425;BME280;64007;50.632;13.700;2023-06-10T09:57:33;98085.81;;;21.16;80.49
75425;BME280;64007;50.632;13.700;2023-06-10T09:59:59;98083.72;;;20.97;83.26
75425;BME280;64007;50.632;13.700;2023-06-10T10:02:29;98082.59;;;20.77;83.70
75425;BME280;64007;50.632;13.700;2023-06-10T10:05:02;98089.50;;;20.50;89.72
75425;BME280;64007;50.632;13.700;2023-06-10T10:07:29;98079.66;;;20.34;90.93
75425;BME280;64007;50.632;13.700;2023-06-10T10:09:56;98081.41;;;20.27;96.63
75425;BME280;64007;50.632;13.700;2023-06-10T10:12:23;98084.94;;;20.13;100.00
75425;BME280;64007;50.632;13.700;2023-06-10T10:14:49;98091.84;;;19.92;100.00
75425;BME280;64007;50.632;13.700;2023-06-10T10:17:15;98083.81;;;19.84;100.00
75425;BME280;64007;50.632;13.700;2023-06-10T10:19:52;98083.00;;;19.98;100.00
75425;BME280;64007;50.632;13.700;2023-06-10T10:22:25;98078.97;;;20.17;100.00
75425;BME280;64007;50.632;13.700;2023-06-10T10:25:02;98091.34;;;20.64;100.00
75425;BME280;64007;50.632;13.700;2023-06-10T10:27:40;98081.16;;;21.10;87.04
75425;BME280;64007;50.632;13.700;2023-06-10T10:30:08;98091.81;;;21.63;87.63
75425;BME280;64007;50.632;13.700;2023-06-10T10:32:55;98080.72;;;22.22;80.15
75425;BME280;64007;50.632;13.700;2023-06-10T10:35:24;98087.19;;;22.48;75.42
75425;BME280;64007;50.632;13.700;2023-06-10T10:37:52;98085.56;;;22.82;71.53
75425;BME280;64007;50.632;13.700;2023-06-10T10:40:20;98093.91;;;23.28;72.35
75425;BME280;64007;50.632;13.700;2023-06-10T10:42:48;98088.22;;;23.64;70.26
75425;BME280;64007;50.632;13.700;2023-06-10T10:45:14;98088.22;;;23.64;70.29
75425;BME280;64007;50.632;13.700;2023-06-10T10:47:41;98084.28;;;23.73;74.16
75425;BME280;64007;50.632;13.700;2023-06-10T10:50:16;98078.03;;;23.86;69.60
75425;BME280;64007;50.632;13.700;2023-06-10T10:52:56;98077.19;;;23.99;74.86
75425;BME280;64007;50.632;13.700;2023-06-10T10:55:25;98068.22;;;24.25;68.01
75425;BME280;64007;50.632;13.700;2023-06-10T10:58:07;98071.94;;;24.83;69.41
75425;BME280;64007;50.632;13.700;2023-06-10T11:00:35;98073.75;;;25.67;77.11
75425;BME280;64007;50.632;13.700;2023-06-10T11:03:06;98067.06;;;26.19;71.55
75425;BME280;64007;50.632;13.700;2023-06-10T11:05:40;98060.69;;;26.75;69.74
75425;BME280;64007;50.632;13.700;2023-06-10T11:08:08;98055.13;;;27.25;64.62
75425;BME280;64007;50.632;13.700;2023-06-10T11:10:39;98054.97;;;27.68;55.43
75425;BME280;64007;50.632;13.700;2023-06-10T11:13:07;98041.22;;;27.75;54.32
75425;BME280;64007;50.632;13.700;2023-06-10T11:15:38;98049.88;;;27.72;57.55
75425;BME280;64007;50.632;13.700;2023-06-10T11:23:44;98027.03;;;27.18;52.43
75425;BME280;64007;50.632;13.700;2023-06-10T11:26:17;98022.22;;;27.02;52.51
75425;BME280;64007;50.632;13.700;2023-06-10T11:31:42;98025.69;;;27.27;53.61
75425;BME280;64007;50.632;13.700;2023-06-10T11:34:08;98027.91;;;27.00;52.23
75425;BME280;64007;50.632;13.700;2023-06-10T11:36:39;98019.38;;;27.57;50.72
75425;BME280;64007;50.632;13.700;2023-06-10T11:39:11;98016.97;;;28.32;54.94
75425;BME280;64007;50.632;13.700;2023-06-10T11:41:38;98012.47;;;28.49;51.86
75425;BME280;64007;50.632;13.700;2023-06-10T11:44:08;98017.31;;;28.59;52.89
75425;BME280;64007;50.632;13.700;2023-06-10T11:46:34;98016.13;;;28.66;48.12
75425;BME280;64007;50.632;13.700;2023-06-10T11:49:01;98015.22;;;29.24;48.78
75425;BME280;64007;50.632;13.700;2023-06-10T11:51:30;98008.88;;;29.64;49.57
75425;BME280;64007;50.632;13.700;2023-06-10T11:53:56;98009.00;;;30.36;45.81
75425;BME280;64007;50.632;13.700;2023-06-10T11:56:23;98000.38;;;30.83;44.22
75425;BME280;64007;50.632;13.700;2023-06-10T11:59:07;97999.81;;;30.09;42.48
75425;BME280;64007;50.632;13.700;2023-06-10T12:01:35;98006.72;;;30.67;45.35
75425;BME280;64007;50.632;13.700;2023-06-10T12:04:04;97987.19;;;31.24;42.04
75425;BME280;64007;50.632;13.700;2023-06-10T12:11:45;97993.09;;;33.08;37.13
75425;BME280;64007;50.632;13.700;2023-06-10T12:14:10;97990.03;;;33.04;36.75
75425;BME280;64007;50.632;13.700;2023-06-10T12:16:36;97988.94;;;33.83;38.06
75425;BME280;64007;50.632;13.700;2023-06-10T12:19:03;97992.25;;;33.85;34.78
75425;BME280;64007;50.632;13.700;2023-06-10T12:21:30;97993.91;;;34.37;31.22
75425;BME280;64007;50.632;13.700;2023-06-10T12:24:14;97985.94;;;35.20;33.33
75425;BME280;64007;50.632;13.700;2023-06-10T12:26:43;97990.22;;;35.52;32.56
75425;BME280;64007;50.632;13.700;2023-06-10T12:32:00;97968.88;;;36.01;31.97
75425;BME280;64007;50.632;13.700;2023-06-10T12:34:30;97973.38;;;36.26;31.19
75425;BME280;64007;50.632;13.700;2023-06-10T12:36:57;97976.81;;;36.42;29.37
75425;BME280;64007;50.632;13.700;2023-06-10T12:39:23;97970.56;;;36.60;30.68
75425;BME280;64007;50.632;13.700;2023-06-10T12:41:49;97965.16;;;36.98;29.13
75425;BME280;64007;50.632;13.700;2023-06-10T12:44:16;97959.72;;;37.12;29.17
75425;BME280;64007;50.632;13.700;2023-06-10T12:46:42;97953.78;;;37.42;30.49
75425;BME280;64007;50.632;13.700;2023-06-10T12:49:07;97953.78;;;37.80;28.06
75425;BME280;64007;50.632;13.700;2023-06-10T12:51:33;97942.41;;;38.14;28.50
75425;BME280;64007;50.632;13.700;2023-06-10T12:54:00;97944.94;;;37.40;28.04
75425;BME280;64007;50.632;13.700;2023-06-10T12:56:26;97934.16;;;38.09;29.15
75425;BME280;64007;50.632;13.700;2023-06-10T12:58:51;97933.44;;;38.49;28.95
75425;BME280;64007;50.632;13.700;2023-06-10T13:01:17;97941.22;;;39.07;27.95
75425;BME280;64007;50.632;13.700;2023-06-10T13:03:43;97934.13;;;39.51;26.43
75425;BME280;64007;50.632;13.700;2023-06-10T13:06:09;97936.34;;;38.99;25.56
75425;BME280;64007;50.632;13.700;2023-06-10T13:08:34;97937.94;;;39.55;25.68